createdAt,value
2023-01-18T00:01:46.936Z,7.73
2023-01-18T00:04:49.289Z,7.64
2023-01-18T00:07:54.883Z,7.47
2023-01-18T00:11:07.081Z,7.42
2023-01-18T00:14:09.473Z,7.27
2023-01-18T00:17:11.876Z,7.48
2023-01-18T00:20:15.147Z,7.49
2023-01-18T00:23:17.446Z,7.54
2023-01-18T00:26:20.210Z,7.52
2023-01-18T00:29:22.533Z,7.56
2023-01-18T00:32:25.403Z,7.47
2023-01-18T00:35:27.863Z,7.55
2023-01-18T00:38:30.929Z,7.67
2023-01-18T00:41:33.309Z,7.79
2023-01-18T00:44:35.665Z,7.72
2023-01-18T00:47:38.006Z,7.73
2023-01-18T00:50:40.373Z,7.87
2023-01-18T00:53:46.349Z,7.88
2023-01-18T00:56:48.769Z,7.97
2023-01-18T00:59:51.185Z,8.06
2023-01-18T01:02:54.014Z,8.37
2023-01-18T01:06:15.296Z,8.61
2023-01-18T01:09:25.785Z,8.76
2023-01-18T01:12:46.504Z,8.90
2023-01-18T01:16:07.217Z,8.87
2023-01-18T01:19:28.026Z,8.84
2023-01-18T01:22:48.689Z,8.85
2023-01-18T01:26:09.009Z,9.07
2023-01-18T01:29:11.526Z,9.08
2023-01-18T01:32:13.905Z,9.07
2023-01-18T01:35:16.272Z,9.15
2023-01-18T01:38:18.589Z,9.05
2023-01-18T01:41:26.644Z,9.15
2023-01-18T01:44:30.718Z,9.10
2023-01-18T01:47:41.282Z,9.09
2023-01-18T01:50:43.693Z,9.14
2023-01-18T01:53:48.791Z,8.89
2023-01-18T01:56:56.396Z,9.07
2023-01-18T01:59:58.701Z,9.08
2023-01-18T02:03:09.311Z,9.05
2023-01-18T02:06:32.029Z,8.91
2023-01-18T02:09:34.439Z,9.00
2023-01-18T02:12:40.096Z,8.98
2023-01-18T02:16:23.465Z,9.09
2023-01-18T02:19:50.743Z,8.97
2023-01-18T02:23:17.272Z,8.89
2023-01-18T02:26:25.448Z,8.92
2023-01-18T02:29:37.440Z,8.87
2023-01-18T02:33:06.508Z,8.87
2023-01-18T02:36:09.043Z,8.70
2023-01-18T02:39:53.364Z,8.88
2023-01-18T02:43:19.320Z,8.72
2023-01-18T02:46:33.707Z,8.64
2023-01-18T02:49:36.252Z,8.50
2023-01-18T02:52:47.367Z,8.42
2023-01-18T02:56:08.708Z,8.53
2023-01-18T02:59:22.811Z,8.54
2023-01-18T03:02:26.452Z,8.42
2023-01-18T03:05:31.007Z,8.48
2023-01-18T03:08:44.241Z,8.34
2023-01-18T03:11:57.868Z,8.42
2023-01-18T03:15:26.743Z,8.37
2023-01-18T03:19:04.982Z,8.39
2023-01-18T03:22:07.372Z,8.40
2023-01-18T03:25:13.390Z,8.00
2023-01-18T03:28:39.481Z,8.26
2023-01-18T03:32:24.721Z,8.24
2023-01-18T03:35:29.466Z,8.25
2023-01-18T03:38:34.007Z,8.51
2023-01-18T03:41:43.410Z,8.33
2023-01-18T03:44:58.160Z,8.35
2023-01-18T03:48:01.858Z,8.46
2023-01-18T03:51:15.575Z,8.35
2023-01-18T03:54:28.618Z,8.16
2023-01-18T03:57:35.687Z,8.41
2023-01-18T04:00:39.442Z,8.24
2023-01-18T04:03:41.831Z,8.27
2023-01-18T04:06:44.198Z,8.22
2023-01-18T04:09:46.984Z,8.42
2023-01-18T04:12:49.477Z,8.39
2023-01-18T04:15:51.863Z,8.29
2023-01-18T04:18:54.356Z,8.41
2023-01-18T04:21:57.122Z,8.40
2023-01-18T04:24:59.444Z,8.58
2023-01-18T04:28:01.821Z,8.44
2023-01-18T04:31:04.361Z,8.36
2023-01-18T04:34:06.764Z,8.03
2023-01-18T04:37:09.168Z,8.37
2023-01-18T04:40:12.223Z,8.26
2023-01-18T04:43:14.557Z,8.15
2023-01-18T04:46:16.967Z,8.39
2023-01-18T04:49:19.560Z,8.03
2023-01-18T04:52:22.002Z,7.87
2023-01-18T04:55:24.457Z,7.84
2023-01-18T04:58:26.831Z,7.60
2023-01-18T05:01:29.787Z,7.41
2023-01-18T05:04:32.313Z,7.12
2023-01-18T05:07:34.760Z,6.96
2023-01-18T05:10:37.123Z,6.76
2023-01-18T05:13:40.939Z,6.82
2023-01-18T05:16:43.316Z,6.55
2023-01-18T05:19:46.835Z,6.61
2023-01-18T05:22:49.249Z,6.56
2023-01-18T05:25:56.027Z,6.64
2023-01-18T05:28:58.756Z,6.83
2023-01-18T05:32:01.120Z,6.96
2023-01-18T05:35:04.835Z,7.20
2023-01-18T05:38:07.270Z,7.22
2023-01-18T05:41:09.765Z,7.26
2023-01-18T05:44:12.188Z,7.21
2023-01-18T05:47:14.560Z,7.42
2023-01-18T05:50:16.922Z,7.38
2023-01-18T05:53:21.573Z,7.28
2023-01-18T05:56:24.062Z,7.23
2023-01-18T05:59:26.530Z,7.29
2023-01-18T06:02:29.196Z,7.24
2023-01-18T06:11:20.685Z,7.39
2023-01-18T06:14:23.239Z,7.39
2023-01-18T06:17:25.589Z,7.49
2023-01-18T06:20:30.412Z,7.53
2023-01-18T06:23:32.850Z,7.43
2023-01-18T06:26:35.396Z,7.57
2023-01-18T06:29:37.731Z,7.56
2023-01-18T06:32:40.185Z,7.57
2023-01-18T06:35:43.753Z,7.52
2023-01-18T06:38:46.252Z,7.65
2023-01-18T06:41:48.957Z,7.62
2023-01-18T06:44:51.397Z,7.53
2023-01-18T06:47:53.786Z,7.62
2023-01-18T06:50:57.632Z,7.42
2023-01-18T06:54:00.112Z,7.38
2023-01-18T06:57:02.589Z,7.33
2023-01-18T07:00:06.911Z,7.35
2023-01-18T07:03:10.657Z,7.39
2023-01-18T07:06:13.244Z,7.48
2023-01-18T07:09:15.847Z,7.86
2023-01-18T07:12:18.712Z,7.98
2023-01-18T07:15:22.552Z,7.91
2023-01-18T07:18:26.237Z,8.16
2023-01-18T07:21:29.821Z,8.02
2023-01-18T07:24:32.272Z,8.08
2023-01-18T07:27:34.727Z,8.20
2023-01-18T07:30:37.233Z,8.15
2023-01-18T07:33:39.729Z,8.35
2023-01-18T07:36:42.171Z,8.35
2023-01-18T07:39:44.660Z,8.22
2023-01-18T07:42:56.929Z,8.23
2023-01-18T07:46:00.805Z,8.33
2023-01-18T07:49:05.767Z,8.08
2023-01-18T07:52:08.249Z,8.19
2023-01-18T07:55:10.857Z,8.18
2023-01-18T07:58:13.610Z,8.13
2023-01-18T08:01:19.390Z,8.37
2023-01-18T08:04:22.528Z,8.48
2023-01-18T08:07:25.784Z,8.42
2023-01-18T08:10:29.813Z,8.47
2023-01-18T08:13:32.669Z,8.43
2023-01-18T08:16:35.051Z,8.66
2023-01-18T08:19:37.726Z,8.65
2023-01-18T08:22:48.768Z,8.44
2023-01-18T08:25:51.275Z,8.68
2023-01-18T08:28:53.921Z,8.56
2023-01-18T08:31:56.543Z,8.58
2023-01-18T08:35:00.521Z,8.55
2023-01-18T08:38:03.061Z,8.64
2023-01-18T08:41:05.683Z,8.50
2023-01-18T08:44:08.370Z,8.67
2023-01-18T08:47:11.650Z,8.59
2023-01-18T08:50:14.062Z,8.56
2023-01-18T08:53:16.844Z,8.19
2023-01-18T08:56:20.358Z,8.43
2023-01-18T08:59:23.900Z,8.55
2023-01-18T09:02:26.329Z,9.03
2023-01-18T09:05:28.795Z,9.49
2023-01-18T09:08:31.934Z,9.45
2023-01-18T09:11:34.322Z,9.38
2023-01-18T09:14:36.764Z,9.65
2023-01-18T09:17:39.340Z,9.92
2023-01-18T09:20:43.574Z,10.65
2023-01-18T09:23:49.125Z,11.46
2023-01-18T09:26:52.485Z,11.35
2023-01-18T09:29:55.209Z,10.31
2023-01-18T09:32:58.878Z,9.52
2023-01-18T09:36:04.480Z,9.12
2023-01-18T09:39:07.323Z,8.66
2023-01-18T09:42:28.494Z,8.79
2023-01-18T09:45:34.340Z,8.65
2023-01-18T09:48:40.900Z,9.04
2023-01-18T09:52:08.033Z,9.13
2023-01-18T09:55:16.802Z,8.94
2023-01-18T09:58:52.365Z,10.81
2023-01-18T10:01:56.290Z,11.13
2023-01-18T10:05:05.320Z,9.90
2023-01-18T10:08:15.152Z,8.94
2023-01-18T10:11:31.692Z,8.56
2023-01-18T10:14:49.072Z,8.19
2023-01-18T10:17:56.630Z,8.08
2023-01-18T10:21:04.764Z,8.59
2023-01-18T10:24:41.062Z,9.18
2023-01-18T10:27:58.420Z,12.40
2023-01-18T10:31:23.971Z,13.30
2023-01-18T10:34:32.998Z,12.05
2023-01-18T10:37:45.433Z,12.86
2023-01-18T10:40:55.121Z,12.94
2023-01-18T10:43:57.617Z,10.82
2023-01-18T10:47:01.282Z,12.23
2023-01-18T10:50:15.376Z,11.49
2023-01-18T10:53:23.836Z,11.97
2023-01-18T10:56:28.696Z,10.33
2023-01-18T10:59:38.058Z,12.02
2023-01-18T11:02:42.198Z,11.91
2023-01-18T11:05:46.039Z,11.66
2023-01-18T11:08:50.178Z,11.48
2023-01-18T11:12:10.865Z,12.03
2023-01-18T11:15:13.253Z,11.33
2023-01-18T11:18:17.625Z,11.80
2023-01-18T11:21:20.292Z,11.70
2023-01-18T11:24:27.870Z,9.80
2023-01-18T11:27:32.375Z,8.87
2023-01-18T11:30:35.000Z,8.77
2023-01-18T11:34:01.465Z,9.34
2023-01-18T11:37:18.327Z,11.80
2023-01-18T11:40:22.175Z,11.24
2023-01-18T11:43:27.955Z,10.47
2023-01-18T11:46:34.887Z,11.13
2023-01-18T11:49:45.907Z,10.56
2023-01-18T11:53:00.240Z,8.61
2023-01-18T11:56:14.972Z,9.06
2023-01-18T11:59:34.001Z,8.86
2023-01-18T12:02:57.578Z,9.63
2023-01-18T12:06:12.281Z,9.23
2023-01-18T12:09:54.056Z,8.47
2023-01-18T12:13:11.380Z,8.02
2023-01-18T12:16:19.757Z,7.92
2023-01-18T12:19:43.173Z,8.27
2023-01-18T12:22:51.292Z,8.22
2023-01-18T12:26:11.792Z,8.11
2023-01-18T12:29:39.505Z,7.92
2023-01-18T12:33:04.820Z,7.63
2023-01-18T12:36:27.533Z,9.02
2023-01-18T12:39:35.740Z,9.56
2023-01-18T12:43:19.522Z,10.20
2023-01-18T12:46:33.779Z,10.47
2023-01-18T12:49:43.772Z,10.33
2023-01-18T12:52:52.157Z,8.66
2023-01-18T12:55:55.861Z,9.23
2023-01-18T12:59:02.160Z,9.81
2023-01-18T13:02:26.738Z,8.99
2023-01-18T13:05:43.950Z,7.72
2023-01-18T13:08:55.078Z,8.23
2023-01-18T13:11:58.539Z,8.24
2023-01-18T13:15:35.895Z,7.83
2023-01-18T13:19:00.534Z,7.51
2023-01-18T13:22:06.182Z,7.49
2023-01-18T13:25:36.503Z,7.47
2023-01-18T13:28:39.037Z,7.67
2023-01-18T13:31:41.651Z,8.39
2023-01-18T13:34:48.543Z,8.74
2023-01-18T13:37:57.940Z,8.47
2023-01-18T13:41:03.994Z,7.82
2023-01-18T13:44:27.147Z,7.79
2023-01-18T13:47:35.548Z,8.17
2023-01-18T13:50:39.501Z,7.60
2023-01-18T13:53:49.973Z,7.34
2023-01-18T13:57:01.228Z,7.09
2023-01-18T14:00:05.613Z,6.73
2023-01-18T14:03:20.609Z,6.41
2023-01-18T14:06:34.216Z,6.54
2023-01-18T14:09:45.971Z,6.71
2023-01-18T14:12:51.571Z,7.03
2023-01-18T14:15:54.832Z,7.69
2023-01-18T14:19:17.544Z,8.16
2023-01-18T14:22:19.992Z,7.74
2023-01-18T14:25:46.692Z,7.65
2023-01-18T14:28:58.751Z,7.27
2023-01-18T14:32:05.239Z,6.79
2023-01-18T14:35:21.108Z,6.28
2023-01-18T14:38:24.747Z,6.07
2023-01-18T14:41:27.128Z,5.76
2023-01-18T14:44:56.868Z,5.59
2023-01-18T14:48:13.030Z,5.58
2023-01-18T14:51:18.736Z,5.49
2023-01-18T14:54:24.892Z,5.46
2023-01-18T14:57:27.375Z,5.32
2023-01-18T15:00:30.116Z,5.28
2023-01-18T15:03:32.589Z,5.21
2023-01-18T15:06:37.963Z,5.09
2023-01-18T15:09:42.364Z,5.14
2023-01-18T15:12:52.400Z,5.18
2023-01-18T15:15:59.429Z,4.87
2023-01-18T15:19:04.408Z,4.98
2023-01-18T15:22:10.948Z,4.58
2023-01-18T15:25:29.064Z,4.75
2023-01-18T15:28:35.755Z,4.61
2023-01-18T15:31:55.746Z,4.45
2023-01-18T15:34:59.521Z,4.37
2023-01-18T15:38:05.021Z,4.32
2023-01-18T15:41:12.030Z,4.12
2023-01-18T15:44:40.504Z,4.34
2023-01-18T15:47:48.194Z,4.21
2023-01-18T15:50:56.292Z,4.21
2023-01-18T15:53:58.675Z,4.20
2023-01-18T15:57:14.797Z,4.10
2023-01-18T16:00:38.110Z,4.04
2023-01-18T16:04:04.114Z,3.70
2023-01-18T16:07:25.317Z,3.87
2023-01-18T16:10:28.373Z,3.63
2023-01-18T16:13:42.769Z,3.72
2023-01-18T16:16:46.106Z,3.73
2023-01-18T16:19:51.912Z,3.75
2023-01-18T16:23:09.316Z,3.63
2023-01-18T16:26:14.374Z,3.50
2023-01-18T16:29:16.958Z,3.54
2023-01-18T16:32:30.647Z,3.66
2023-01-18T16:35:34.870Z,3.71
2023-01-18T16:38:37.556Z,3.67
2023-01-18T16:41:49.231Z,3.67
2023-01-18T16:44:52.986Z,3.72
2023-01-18T16:47:55.957Z,3.91
2023-01-18T16:51:01.759Z,3.99
2023-01-18T16:54:04.388Z,3.84
2023-01-18T16:57:07.078Z,3.60
2023-01-18T17:00:17.244Z,3.58
2023-01-18T17:03:19.611Z,3.61
2023-01-18T17:06:22.800Z,3.39
2023-01-18T17:09:28.076Z,3.30
2023-01-18T17:12:31.682Z,3.14
2023-01-18T17:15:34.908Z,3.20
2023-01-18T17:18:37.607Z,2.93
2023-01-18T17:21:41.395Z,2.86
2023-01-18T17:24:45.043Z,2.81
2023-01-18T17:27:48.971Z,2.86
2023-01-18T17:30:51.790Z,2.96
2023-01-18T17:33:54.547Z,2.83
2023-01-18T17:36:58.653Z,2.85
2023-01-18T17:40:16.337Z,2.74
2023-01-18T17:43:32.233Z,2.94
2023-01-18T17:46:36.115Z,2.96
2023-01-18T17:49:39.008Z,2.98
2023-01-18T17:52:41.447Z,2.84
2023-01-18T17:55:43.812Z,2.50
2023-01-18T17:58:48.280Z,2.60
2023-01-18T18:01:50.831Z,2.74
2023-01-18T18:04:55.269Z,2.54
2023-01-18T18:07:57.871Z,2.66
2023-01-18T18:11:00.756Z,2.69
2023-01-18T18:17:25.748Z,3.15
2023-01-18T18:20:28.386Z,2.96
2023-01-18T18:23:32.025Z,2.97
2023-01-18T18:26:34.818Z,2.74
2023-01-18T18:29:37.581Z,2.75
2023-01-18T18:32:40.232Z,2.66
2023-01-18T18:36:38.411Z,2.68
2023-01-18T18:43:03.234Z,2.54
2023-01-18T18:49:26.201Z,2.72
2023-01-18T18:52:28.641Z,2.78
2023-01-18T18:55:32.041Z,2.90
2023-01-18T18:58:37.168Z,2.91
2023-01-18T19:01:40.131Z,2.85
2023-01-18T19:04:42.789Z,2.94
2023-01-18T19:07:47.071Z,2.80
2023-01-18T19:10:51.319Z,3.00
2023-01-18T19:13:55.953Z,3.23
2023-01-18T19:17:00.073Z,2.99
2023-01-18T19:20:02.608Z,3.18
2023-01-18T19:23:05.343Z,3.09
2023-01-18T19:26:07.757Z,3.06
2023-01-18T19:29:10.694Z,2.88
2023-01-18T19:32:13.125Z,2.88
2023-01-18T19:35:16.382Z,2.54
2023-01-18T19:38:19.055Z,2.73
2023-01-18T19:41:22.723Z,2.81
2023-01-18T19:44:26.694Z,2.51
2023-01-18T19:47:29.296Z,2.45
2023-01-18T19:50:32.100Z,2.37
2023-01-18T19:53:34.747Z,2.27
2023-01-18T19:56:37.345Z,2.45
2023-01-18T19:59:40.123Z,2.36
2023-01-18T20:02:42.889Z,2.52
2023-01-18T20:05:45.583Z,2.41
2023-01-18T20:08:50.837Z,2.51
2023-01-18T20:11:53.336Z,2.73
2023-01-18T20:14:55.968Z,2.81
2023-01-18T20:17:59.070Z,2.77
2023-01-18T20:21:06.353Z,2.74
2023-01-18T20:24:09.411Z,2.71
2023-01-18T20:27:16.230Z,2.52
2023-01-18T20:30:20.182Z,2.84
2023-01-18T20:33:23.042Z,2.91
2023-01-18T20:36:25.692Z,2.85
2023-01-18T20:39:28.806Z,2.77
2023-01-18T20:42:31.352Z,2.97
2023-01-18T20:45:33.888Z,3.03
2023-01-18T20:48:37.377Z,2.89
2023-01-18T20:51:41.596Z,3.06
2023-01-18T20:54:44.364Z,2.93
2023-01-18T20:57:50.888Z,3.07
2023-01-18T21:00:54.607Z,3.03
2023-01-18T21:03:57.246Z,3.10
2023-01-18T21:06:59.837Z,3.30
2023-01-18T21:10:02.843Z,3.26
2023-01-18T21:13:09.291Z,3.61
2023-01-18T21:16:11.862Z,3.62
2023-01-18T21:19:14.373Z,3.63
2023-01-18T21:22:16.939Z,3.53
2023-01-18T21:25:19.477Z,3.91
2023-01-18T21:28:22.628Z,3.99
2023-01-18T21:31:25.083Z,3.99
2023-01-18T21:34:27.433Z,4.02
2023-01-18T21:37:32.654Z,4.00
2023-01-18T21:40:35.543Z,4.04
2023-01-18T21:43:56.169Z,3.93
2023-01-18T21:46:59.038Z,4.11
2023-01-18T21:50:19.808Z,4.18
2023-01-18T21:53:40.581Z,4.09
2023-01-18T21:56:46.473Z,4.16
2023-01-18T21:59:48.902Z,3.97
2023-01-18T22:02:51.400Z,4.23
2023-01-18T22:05:53.741Z,4.11
2023-01-18T22:08:56.344Z,4.09
2023-01-18T22:11:59.652Z,4.12
2023-01-18T22:15:03.029Z,4.26
2023-01-18T22:18:05.942Z,4.12
2023-01-18T22:21:08.375Z,4.10
2023-01-18T22:24:12.355Z,4.17
2023-01-18T22:27:14.702Z,4.15
2023-01-18T22:30:17.458Z,4.31
2023-01-18T22:33:19.976Z,4.50
2023-01-18T22:36:22.400Z,4.38
2023-01-18T22:39:25.382Z,4.57
2023-01-18T22:42:28.126Z,4.52
2023-01-18T22:45:30.501Z,4.58
2023-01-18T22:48:37.223Z,4.65
2023-01-18T22:51:39.677Z,4.68
2023-01-18T22:54:42.582Z,4.87
2023-01-18T22:57:44.948Z,4.95
2023-01-18T23:00:48.943Z,5.08
2023-01-18T23:03:53.499Z,5.07
2023-01-18T23:07:00.738Z,4.99
2023-01-18T23:10:03.483Z,5.05
2023-01-18T23:13:05.849Z,5.03
2023-01-18T23:16:29.184Z,5.11
2023-01-18T23:19:33.397Z,4.93
2023-01-18T23:22:36.048Z,5.13
2023-01-18T23:25:38.376Z,5.02
2023-01-18T23:28:41.493Z,5.02
2023-01-18T23:31:44.169Z,5.27
2023-01-18T23:34:47.807Z,5.33
2023-01-18T23:37:50.216Z,5.32
2023-01-18T23:41:14.130Z,5.43
2023-01-18T23:44:34.914Z,5.57
2023-01-18T23:47:55.538Z,5.71
2023-01-18T23:51:17.781Z,5.53
2023-01-18T23:54:20.240Z,5.82
2023-01-18T23:57:22.681Z,5.79
